Time;durP1;ratioP1;P1;durP2;ratioP2;P2;SDS_P1;SDS_P2;PMS_P1;PMS_P2;Temp;Humidity;BMP_temperature;BMP_pressure;BME280_temperature;BME280_humidity;BME280_pressure;Samples;Min_cycle;Max_cycle;Signal;HPM_P1;HPM_P2
2021/07/20 00:00:58;;;;;;;6.38;4.03;;;23.60;58.80;;;;;;5014732;28;20033;-81
2021/07/20 00:03:23;;;;;;;7.55;4.50;;;23.50;59.00;;;;;;5011154;28;20069;-80
2021/07/20 00:05:49;;;;;;;7.00;4.10;;;23.50;59.30;;;;;;5011053;28;20049;-80
2021/07/20 00:08:14;;;;;;;7.65;4.40;;;23.50;58.90;;;;;;5011168;28;20124;-80
2021/07/20 00:10:50;;;;;;;6.53;3.67;;;23.40;59.00;;;;;;5011369;28;20554;-80
2021/07/20 00:13:16;;;;;;;5.07;3.97;;;23.40;58.40;;;;;;5013116;28;20030;-80
2021/07/20 00:15:42;;;;;;;7.35;4.28;;;23.40;59.60;;;;;;5007921;28;20398;-79
2021/07/20 00:18:11;;;;;;;6.40;4.72;;;23.40;60.20;;;;;;5011806;28;20034;-79
2021/07/20 00:20:38;;;;;;;6.78;4.53;;;23.30;59.50;;;;;;5010273;28;20068;-79
2021/07/20 00:23:05;;;;;;;8.05;4.28;;;23.30;58.50;;;;;;5008820;28;20125;-80
2021/07/20 00:25:31;;;;;;;5.75;4.28;;;23.20;59.80;;;;;;4994982;28;20390;-79
2021/07/20 00:27:57;;;;;;;6.97;4.43;;;23.20;59.00;;;;;;5011821;28;20499;-79
2021/07/20 00:30:23;;;;;;;5.57;4.20;;;23.20;59.70;;;;;;5010965;28;20581;-80
2021/07/20 00:32:49;;;;;;;5.47;4.10;;;23.20;59.10;;;;;;5009953;28;20088;-80
2021/07/20 00:35:15;;;;;;;8.57;4.25;;;23.10;59.70;;;;;;5011246;28;20463;-80
2021/07/20 00:37:41;;;;;;;7.60;4.35;;;23.10;60.00;;;;;;5009280;28;20031;-80
2021/07/20 00:40:10;;;;;;;6.50;4.25;;;23.10;60.60;;;;;;5012435;28;20022;-80
2021/07/20 00:42:37;;;;;;;6.07;4.35;;;23.10;59.60;;;;;;5010478;28;20125;-80
2021/07/20 00:45:05;;;;;;;6.25;4.30;;;23.10;58.80;;;;;;5009546;28;20121;-80
2021/07/20 00:47:31;;;;;;;7.63;5.07;;;23.00;59.50;;;;;;5009434;28;20076;-81
2021/07/20 00:49:56;;;;;;;4.63;4.00;;;23.00;59.70;;;;;;5009054;28;20030;-80
2021/07/20 00:52:22;;;;;;;5.78;4.45;;;23.00;59.50;;;;;;5010880;28;20096;-79
2021/07/20 00:54:48;;;;;;;5.10;4.35;;;23.00;59.80;;;;;;5008969;28;20145;-79
2021/07/20 00:57:14;;;;;;;6.38;4.15;;;23.00;60.00;;;;;;5009190;28;20075;-79
2021/07/20 00:59:41;;;;;;;6.38;4.55;;;22.90;59.40;;;;;;5009288;28;20482;-79
2021/07/20 01:02:07;;;;;;;6.70;4.38;;;22.90;59.40;;;;;;5008211;28;20499;-79
2021/07/20 01:04:32;;;;;;;5.30;4.15;;;22.90;60.70;;;;;;5010278;28;20057;-79
2021/07/20 01:07:00;;;;;;;5.53;4.10;;;22.80;60.30;;;;;;5009441;28;20022;-80
2021/07/20 01:09:26;;;;;;;6.25;4.43;;;22.80;60.90;;;;;;5009794;28;20127;-81
2021/07/20 01:11:53;;;;;;;6.60;4.32;;;22.80;59.30;;;;;;5010856;28;20140;-81
2021/07/20 01:14:19;;;;;;;5.43;4.22;;;22.70;60.10;;;;;;5008531;28;20104;-80
2021/07/20 01:16:46;;;;;;;6.57;4.30;;;22.70;60.30;;;;;;5009123;28;20414;-80
2021/07/20 01:19:14;;;;;;;4.70;4.28;;;22.70;61.50;;;;;;5010143;28;20061;-81
2021/07/20 01:21:41;;;;;;;6.47;4.30;;;22.70;60.80;;;;;;5004404;28;20096;-80
2021/07/20 01:24:12;;;;;;;5.90;4.57;;;22.70;61.00;;;;;;5007927;28;20046;-84
2021/07/20 01:26:38;;;;;;;8.60;4.85;;;22.60;61.00;;;;;;5009797;28;20040;-80
2021/07/20 01:29:05;;;;;;;8.38;4.40;;;22.70;60.80;;;;;;5009419;28;20073;-81
2021/07/20 01:31:36;;;;;;;6.25;4.38;;;22.60;61.30;;;;;;5009342;28;20068;-80
2021/07/20 01:34:03;;;;;;;6.53;4.53;;;22.60;60.60;;;;;;5004722;28;20022;-80
2021/07/20 01:36:31;;;;;;;7.05;5.05;;;22.60;61.10;;;;;;5011059;28;20030;-81
2021/07/20 01:38:59;;;;;;;7.55;4.20;;;22.60;61.20;;;;;;5008064;28;20030;-80
2021/07/20 01:41:25;;;;;;;5.18;4.18;;;22.50;61.50;;;;;;5009508;28;20084;-81
2021/07/20 01:44:02;;;;;;;6.00;4.10;;;22.50;61.60;;;;;;5009477;28;20065;-80
2021/07/20 01:46:30;;;;;;;5.53;4.00;;;22.50;61.80;;;;;;5010994;28;20026;-80
2021/07/20 01:48:58;;;;;;;5.50;4.55;;;22.50;62.00;;;;;;5003715;28;20089;-80
2021/07/20 01:51:25;;;;;;;7.15;4.20;;;22.40;62.60;;;;;;5006586;28;20060;-81
2021/07/20 01:53:52;;;;;;;7.88;4.57;;;22.40;62.70;;;;;;5005274;28;20022;-81
2021/07/20 01:56:20;;;;;;;7.15;4.22;;;22.50;62.60;;;;;;5009191;28;20034;-81
2021/07/20 01:58:46;;;;;;;5.28;4.40;;;22.40;62.20;;;;;;5009304;28;20566;-81
2021/07/20 02:01:41;;;;;;;5.20;4.25;;;22.40;62.00;;;;;;5011545;28;20068;-80
2021/07/20 02:04:24;;;;;;;5.63;4.10;;;22.40;61.50;;;;;;5008586;28;20042;-81
2021/07/20 02:09:37;;;;;;;5.50;4.13;;;22.40;62.80;;;;;;5011013;28;20069;-80
2021/07/20 02:12:13;;;;;;;5.10;4.10;;;22.30;62.80;;;;;;5008975;28;20075;-80
2021/07/20 02:14:42;;;;;;;5.55;4.45;;;22.30;62.30;;;;;;5009060;28;20030;-81
2021/07/20 02:17:10;;;;;;;5.38;4.45;;;22.30;64.20;;;;;;5008948;28;20025;-81
2021/07/20 02:19:42;;;;;;;5.82;4.28;;;22.20;62.80;;;;;;5008975;28;20029;-81
2021/07/20 02:22:09;;;;;;;8.55;4.22;;;22.20;62.70;;;;;;5011378;28;20018;-81
2021/07/20 02:24:37;;;;;;;6.38;4.30;;;22.20;62.30;;;;;;5011090;28;20049;-81
2021/07/20 02:27:05;;;;;;;6.70;4.72;;;22.10;62.70;;;;;;5010359;28;20033;-80
2021/07/20 02:29:32;;;;;;;6.35;4.93;;;22.20;62.90;;;;;;5010029;28;20052;-81
2021/07/20 02:32:00;;;;;;;5.50;3.97;;;22.10;63.80;;;;;;5008797;28;20018;-81
2021/07/20 02:34:28;;;;;;;8.15;5.20;;;22.10;63.80;;;;;;5008050;28;20030;-81
2021/07/20 02:36:55;;;;;;;6.70;4.63;;;22.10;63.60;;;;;;5010309;28;20041;-81
2021/07/20 02:39:22;;;;;;;5.43;4.28;;;22.00;63.30;;;;;;5008028;28;20029;-80
2021/07/20 02:41:50;;;;;;;7.28;4.63;;;22.00;63.90;;;;;;5007768;28;20049;-80
2021/07/20 02:44:18;;;;;;;6.90;4.72;;;22.00;63.40;;;;;;5007834;28;20053;-80
2021/07/20 02:46:44;;;;;;;5.40;4.32;;;21.90;63.30;;;;;;5007804;28;20513;-80
2021/07/20 02:49:11;;;;;;;4.80;4.28;;;21.90;63.60;;;;;;5010047;28;20109;-80
2021/07/20 02:51:39;;;;;;;6.03;4.75;;;21.90;64.10;;;;;;5008745;28;20065;-80
2021/07/20 02:54:05;;;;;;;6.38;4.30;;;21.90;63.90;;;;;;5007801;28;20198;-80
2021/07/20 02:56:31;;;;;;;6.18;4.10;;;21.90;63.80;;;;;;5008255;28;20030;-81
2021/07/20 02:59:03;;;;;;;6.10;4.60;;;21.90;64.10;;;;;;5007542;28;20030;-81
2021/07/20 03:01:32;;;;;;;6.03;3.97;;;21.90;64.10;;;;;;5008331;28;20549;-81
2021/07/20 03:03:57;;;;;;;7.32;4.70;;;21.90;64.10;;;;;;5009522;28;20402;-81
2021/07/20 03:06:25;;;;;;;5.97;4.50;;;21.80;64.30;;;;;;5007490;28;20026;-81
2021/07/20 03:08:56;;;;;;;5.53;4.57;;;21.80;64.00;;;;;;5008203;28;20029;-81
2021/07/20 03:11:22;;;;;;;5.10;4.57;;;21.80;63.50;;;;;;5009139;28;20029;-81
2021/07/20 03:13:52;;;;;;;6.90;4.78;;;21.70;65.20;;;;;;5007634;28;20022;-81
2021/07/20 03:16:19;;;;;;;7.57;4.00;;;21.80;65.10;;;;;;5010546;28;20026;-81
2021/07/20 03:18:47;;;;;;;6.32;4.32;;;21.70;64.30;;;;;;5013183;28;20017;-81
2021/07/20 03:21:15;;;;;;;5.22;4.30;;;21.70;64.40;;;;;;5011595;28;20037;-81
2021/07/20 03:23:43;;;;;;;5.40;4.50;;;21.70;64.70;;;;;;5012013;28;20133;-81
2021/07/20 03:26:09;;;;;;;5.78;4.30;;;21.70;65.80;;;;;;5011314;28;20033;-81
2021/07/20 03:28:36;;;;;;;5.85;4.35;;;21.70;65.50;;;;;;5009974;28;20034;-81
2021/07/20 03:31:02;;;;;;;7.05;4.95;;;21.70;64.80;;;;;;5014676;28;20077;-81
2021/07/20 03:33:31;;;;;;;5.10;4.07;;;21.70;64.80;;;;;;5011160;28;20041;-81
2021/07/20 03:35:57;;;;;;;7.22;4.60;;;21.70;65.40;;;;;;5011401;28;20014;-80
2021/07/20 03:38:24;;;;;;;4.90;4.22;;;21.60;65.00;;;;;;5011975;28;20160;-80
2021/07/20 03:40:52;;;;;;;5.30;4.22;;;21.60;64.30;;;;;;5011889;28;20029;-80
2021/07/20 03:43:22;;;;;;;5.97;4.30;;;21.60;64.80;;;;;;5013173;28;20041;-80
2021/07/20 03:45:48;;;;;;;6.22;4.60;;;21.50;64.50;;;;;;5012663;28;20053;-81
2021/07/20 03:48:15;;;;;;;6.07;4.18;;;21.40;65.60;;;;;;5011998;28;20427;-81
2021/07/20 03:50:44;;;;;;;7.07;4.00;;;21.40;65.00;;;;;;5011803;28;20030;-81
2021/07/20 03:53:12;;;;;;;5.93;4.43;;;21.40;65.60;;;;;;5010541;28;20038;-81
2021/07/20 03:55:49;;;;;;;5.15;4.28;;;21.40;65.40;;;;;;5011486;28;20031;-80
2021/07/20 03:58:17;;;;;;;5.35;4.43;;;21.30;65.80;;;;;;5013555;28;20407;-80
2021/07/20 04:00:46;;;;;;;7.13;4.55;;;21.20;65.30;;;;;;5012585;28;20026;-80
2021/07/20 04:05:51;;;;;;;5.38;4.68;;;21.10;66.20;;;;;;5010729;28;20503;-80
2021/07/20 04:08:19;;;;;;;6.30;4.57;;;21.10;66.10;;;;;;5010613;28;20053;-80
2021/07/20 04:10:46;;;;;;;6.68;4.60;;;21.00;66.40;;;;;;5010440;28;20078;-81
2021/07/20 04:13:13;;;;;;;5.63;4.40;;;21.00;66.40;;;;;;5011867;28;20033;-80
2021/07/20 04:15:53;;;;;;;5.03;4.50;;;21.00;66.40;;;;;;5010364;28;20025;-81
2021/07/20 04:18:20;;;;;;;6.35;4.53;;;21.00;65.90;;;;;;5008222;28;20025;-80
2021/07/20 04:20:47;;;;;;;4.20;3.80;;;21.00;65.90;;;;;;5010663;28;20030;-81
2021/07/20 04:23:14;;;;;;;6.50;4.82;;;21.00;67.20;;;;;;5012095;28;20109;-81
2021/07/20 04:25:46;;;;;;;5.78;4.78;;;21.00;66.90;;;;;;5012335;28;20076;-80
2021/07/20 04:28:14;;;;;;;6.57;4.45;;;21.00;66.90;;;;;;5013423;28;20101;-81
2021/07/20 04:30:41;;;;;;;5.07;4.45;;;21.00;67.30;;;;;;5013635;28;20511;-81
2021/07/20 04:33:08;;;;;;;7.03;4.70;;;20.90;66.10;;;;;;5010384;28;20028;-81
2021/07/20 04:35:35;;;;;;;7.38;4.53;;;20.80;67.00;;;;;;5010432;28;20069;-81
2021/07/20 04:38:02;;;;;;;7.05;4.70;;;20.80;67.10;;;;;;5010926;28;20040;-81
2021/07/20 04:40:28;;;;;;;4.85;4.18;;;20.80;66.80;;;;;;5011459;28;20046;-81
2021/07/20 04:42:54;;;;;;;5.97;4.53;;;20.80;67.80;;;;;;5013199;28;20520;-81
2021/07/20 04:45:21;;;;;;;5.00;4.32;;;20.90;67.90;;;;;;5010441;28;20034;-81
2021/07/20 04:47:47;;;;;;;8.15;4.65;;;20.90;67.90;;;;;;5006508;28;20022;-81
2021/07/20 04:50:14;;;;;;;6.65;4.95;;;20.80;67.30;;;;;;5000962;28;20041;-81
2021/07/20 04:52:41;;;;;;;6.43;4.60;;;20.80;67.60;;;;;;4998901;28;20384;-80
2021/07/20 04:55:08;;;;;;;6.45;4.90;;;20.80;67.50;;;;;;5012230;28;20506;-81
2021/07/20 04:57:37;;;;;;;5.22;4.57;;;20.80;67.40;;;;;;5009892;28;20029;-81
2021/07/20 05:00:06;;;;;;;6.90;4.75;;;20.80;68.40;;;;;;5009391;28;20057;-81
2021/07/20 05:02:35;;;;;;;6.70;4.70;;;20.80;67.90;;;;;;5010255;28;20022;-82
2021/07/20 05:05:02;;;;;;;7.78;4.43;;;20.90;68.10;;;;;;5005137;28;20145;-82
2021/07/20 05:07:30;;;;;;;6.05;4.53;;;20.90;68.20;;;;;;4993005;28;20053;-82
2021/07/20 05:09:56;;;;;;;5.50;4.85;;;20.90;69.00;;;;;;5010996;28;20038;-82
2021/07/20 05:12:24;;;;;;;5.13;4.63;;;21.00;67.80;;;;;;4997545;28;20372;-82
2021/07/20 05:14:50;;;;;;;7.82;4.35;;;21.00;68.10;;;;;;5004827;28;20057;-81
2021/07/20 05:17:17;;;;;;;5.50;4.47;;;21.00;69.30;;;;;;5006529;28;20022;-81
2021/07/20 05:19:43;;;;;;;5.40;4.30;;;21.10;68.50;;;;;;4993669;28;20018;-81
2021/07/20 05:22:13;;;;;;;4.60;4.03;;;21.10;68.50;;;;;;4989431;28;20125;-81
2021/07/20 05:24:39;;;;;;;6.57;4.28;;;21.10;67.90;;;;;;4995132;28;20042;-81
2021/07/20 05:27:05;;;;;;;8.77;4.70;;;21.20;69.40;;;;;;5000741;28;20033;-82
2021/07/20 05:29:31;;;;;;;6.57;4.70;;;21.20;68.10;;;;;;5004332;28;20054;-81
2021/07/20 05:31:58;;;;;;;5.07;4.10;;;21.30;68.50;;;;;;5007185;28;20048;-81
2021/07/20 05:34:24;;;;;;;6.90;4.43;;;21.30;68.60;;;;;;5000677;28;20113;-81
2021/07/20 05:36:50;;;;;;;6.38;4.75;;;21.40;68.10;;;;;;4994136;28;20932;-80
2021/07/20 05:39:16;;;;;;;5.35;4.60;;;21.40;68.10;;;;;;4994103;28;20030;-80
2021/07/20 05:41:43;;;;;;;6.82;4.60;;;21.50;68.20;;;;;;5000876;28;20063;-80
2021/07/20 05:44:13;;;;;;;6.65;4.85;;;21.60;68.20;;;;;;5001197;28;20384;-79
2021/07/20 05:46:42;;;;;;;6.63;4.47;;;21.60;67.60;;;;;;4995402;28;20030;-80
2021/07/20 05:49:10;;;;;;;5.38;4.50;;;21.70;68.00;;;;;;5009012;28;20119;-79
2021/07/20 05:51:37;;;;;;;5.13;4.60;;;21.70;67.60;;;;;;4999674;28;20037;-80
2021/07/20 05:54:05;;;;;;;7.63;4.47;;;21.80;67.60;;;;;;5000241;28;20103;-80
2021/07/20 05:56:33;;;;;;;5.70;4.57;;;21.80;67.20;;;;;;4996510;28;20111;-81
2021/07/20 05:59:02;;;;;;;6.43;4.47;;;21.90;67.50;;;;;;5004280;28;20030;-80
2021/07/20 06:01:31;;;;;;;5.72;4.07;;;22.00;67.50;;;;;;5005065;28;20034;-80
2021/07/20 06:03:59;;;;;;;5.65;4.45;;;22.00;66.80;;;;;;4995735;28;20037;-80
2021/07/20 06:06:26;;;;;;;6.05;4.35;;;22.00;67.80;;;;;;5007237;28;20482;-80
2021/07/20 06:08:54;;;;;;;6.15;4.20;;;22.00;67.20;;;;;;5001577;28;20026;-81
2021/07/20 06:11:22;;;;;;;8.23;5.05;;;22.10;67.50;;;;;;4995414;28;20096;-82
2021/07/20 06:13:51;;;;;;;6.20;4.50;;;22.10;67.10;;;;;;5000753;28;20545;-83
2021/07/20 06:16:22;;;;;;;6.15;4.70;;;22.20;67.20;;;;;;5010397;28;20030;-82
2021/07/20 06:18:48;;;;;;;5.95;4.55;;;22.20;67.50;;;;;;5009890;28;20021;-82
2021/07/20 06:21:14;;;;;;;8.73;4.80;;;22.20;67.20;;;;;;5000171;28;20092;-82
2021/07/20 06:23:43;;;;;;;6.32;4.70;;;22.20;67.00;;;;;;5003896;28;20042;-82
2021/07/20 06:26:10;;;;;;;6.85;4.50;;;22.30;67.10;;;;;;5009281;28;20571;-82
2021/07/20 06:28:37;;;;;;;7.45;4.60;;;22.30;66.80;;;;;;5013925;28;20037;-81
2021/07/20 06:31:04;;;;;;;6.47;4.30;;;22.40;66.50;;;;;;5012647;28;20033;-82
2021/07/20 06:33:33;;;;;;;6.13;4.38;;;22.40;66.70;;;;;;4998044;28;20022;-82
2021/07/20 06:36:00;;;;;;;5.05;4.38;;;22.50;66.50;;;;;;5001768;28;20030;-81
2021/07/20 06:38:27;;;;;;;5.35;4.30;;;22.50;66.20;;;;;;5006449;28;20517;-81
2021/07/20 06:40:55;;;;;;;6.15;3.88;;;22.60;66.60;;;;;;4994936;28;20034;-80
2021/07/20 06:43:22;;;;;;;5.28;4.18;;;22.60;66.30;;;;;;5010246;28;20042;-81
2021/07/20 06:45:49;;;;;;;5.53;4.20;;;22.70;66.00;;;;;;5009889;28;20018;-80
2021/07/20 06:48:18;;;;;;;6.38;4.60;;;22.70;66.30;;;;;;5008175;28;20034;-80
2021/07/20 06:50:46;;;;;;;8.20;4.65;;;22.80;67.00;;;;;;5002790;28;20032;-81
2021/07/20 06:53:12;;;;;;;6.53;4.65;;;22.80;66.10;;;;;;5002831;28;20038;-81
2021/07/20 06:55:51;;;;;;;5.53;3.97;;;22.80;65.80;;;;;;5012522;28;20029;-82
2021/07/20 06:58:19;;;;;;;5.25;4.43;;;22.90;65.80;;;;;;5013169;28;20132;-81
2021/07/20 07:00:48;;;;;;;5.43;4.57;;;23.00;65.60;;;;;;5006840;28;20022;-83
2021/07/20 07:03:16;;;;;;;6.32;4.45;;;23.00;65.40;;;;;;5010585;28;20400;-83
2021/07/20 07:05:42;;;;;;;5.25;4.18;;;23.00;65.80;;;;;;5011701;28;20486;-83
2021/07/20 07:08:10;;;;;;;5.35;4.07;;;23.00;65.60;;;;;;5012338;28;20026;-82
2021/07/20 07:10:37;;;;;;;5.30;4.38;;;23.10;65.80;;;;;;5011584;28;20032;-82
2021/07/20 07:13:07;;;;;;;4.88;4.35;;;23.20;65.50;;;;;;5009998;28;20101;-81
2021/07/20 07:15:34;;;;;;;6.40;4.25;;;23.20;65.40;;;;;;4998943;28;20521;-81
2021/07/20 07:18:01;;;;;;;7.75;4.25;;;23.20;65.20;;;;;;4997282;28;20014;-81
2021/07/20 07:20:27;;;;;;;5.28;4.57;;;23.30;65.10;;;;;;4998579;28;20495;-80
2021/07/20 07:22:54;;;;;;;8.75;4.32;;;23.30;65.00;;;;;;5000534;28;20022;-80
2021/07/20 07:25:21;;;;;;;4.90;4.38;;;23.50;65.80;;;;;;5012819;28;20030;-80
2021/07/20 07:27:49;;;;;;;5.63;4.40;;;23.50;65.00;;;;;;5000795;28;20049;-83
2021/07/20 07:30:17;;;;;;;5.88;4.47;;;23.50;64.80;;;;;;5006043;28;20054;-80
2021/07/20 07:32:43;;;;;;;6.20;4.30;;;23.60;64.40;;;;;;5012925;28;20497;-79
2021/07/20 07:35:10;;;;;;;5.53;4.05;;;23.70;64.60;;;;;;5014020;28;20034;-69
2021/07/20 07:37:36;;;;;;;5.65;3.83;;;23.70;64.50;;;;;;5012723;28;20026;-75
2021/07/20 07:40:05;;;;;;;4.68;4.07;;;23.70;66.20;;;;;;5003067;28;20026;-76
2021/07/20 07:42:34;;;;;;;5.22;3.80;;;23.80;65.30;;;;;;5007361;28;20060;-75
2021/07/20 07:45:00;;;;;;;4.22;3.83;;;23.90;64.60;;;;;;5003106;28;20148;-75
2021/07/20 07:47:27;;;;;;;5.65;3.97;;;24.00;64.70;;;;;;5001180;28;20419;-75
2021/07/20 07:49:53;;;;;;;6.05;3.90;;;24.00;64.80;;;;;;4994282;28;20058;-76
2021/07/20 07:52:19;;;;;;;4.75;4.10;;;24.10;64.00;;;;;;4996282;28;20100;-68
2021/07/20 07:54:46;;;;;;;6.38;4.03;;;24.10;63.40;;;;;;5014646;28;20030;-68
2021/07/20 07:57:15;;;;;;;4.88;3.90;;;24.10;63.20;;;;;;5012509;28;20121;-68
2021/07/20 07:59:42;;;;;;;5.93;4.03;;;24.10;63.20;;;;;;5012653;28;20422;-68
2021/07/20 08:02:13;;;;;;;7.20;4.30;;;24.10;63.00;;;;;;5012234;28;20434;-68
2021/07/20 08:04:41;;;;;;;5.47;4.07;;;24.20;62.80;;;;;;5001649;28;20815;-68
2021/07/20 08:07:09;;;;;;;6.35;3.92;;;24.20;62.70;;;;;;5013906;28;20453;-68
2021/07/20 08:09:35;;;;;;;4.97;4.40;;;24.30;62.60;;;;;;5010855;28;20022;-68
2021/07/20 08:12:03;;;;;;;6.95;4.00;;;24.30;62.20;;;;;;5008521;28;20104;-69
2021/07/20 08:14:29;;;;;;;5.28;4.18;;;24.40;63.30;;;;;;5004500;28;20517;-72
2021/07/20 08:16:59;;;;;;;5.13;3.97;;;24.40;62.30;;;;;;5011209;28;20052;-72
2021/07/20 08:19:27;;;;;;;6.45;4.00;;;24.40;62.00;;;;;;5007314;28;20046;-72
2021/07/20 08:21:59;;;;;;;10.73;4.30;;;24.50;62.00;;;;;;4995364;28;20097;-72
2021/07/20 08:24:26;;;;;;;4.50;3.97;;;24.50;61.60;;;;;;4995431;28;20125;-72
2021/07/20 08:26:58;;;;;;;5.07;4.03;;;24.60;61.40;;;;;;4995946;28;20027;-72
2021/07/20 08:29:31;;;;;;;5.57;3.97;;;24.70;61.30;;;;;;5002577;28;20043;-72
2021/07/20 08:32:02;;;;;;;5.25;4.10;;;24.70;61.30;;;;;;4993846;28;20467;-72
2021/07/20 08:34:33;;;;;;;4.82;3.80;;;24.80;60.90;;;;;;5004300;28;20030;-72
2021/07/20 08:37:00;;;;;;;5.20;4.18;;;24.90;61.00;;;;;;4995288;28;20097;-72
2021/07/20 08:39:27;;;;;;;6.15;3.88;;;24.90;60.80;;;;;;4998145;28;20030;-72
2021/07/20 08:42:32;;;;;;;5.20;3.97;;;24.90;60.90;;;;;;4996073;28;20026;-72
2021/07/20 08:45:13;;;;;;;5.90;3.78;;;25.00;60.80;;;;;;4950988;29;20043;-72
2021/07/20 08:48:05;;;;;;;5.18;3.80;;;25.00;60.50;;;;;;4950941;29;20062;-72
2021/07/20 08:50:38;;;;;;;5.50;3.97;;;25.10;60.70;;;;;;4876090;29;20063;-72
2021/07/20 08:53:30;;;;;;;5.88;4.05;;;25.10;60.40;;;;;;4875542;29;20289;-72
2021/07/20 08:55:59;;;;;;;5.18;4.63;;;25.20;60.20;;;;;;4873344;29;20116;-72
2021/07/20 08:58:32;;;;;;;4.95;4.03;;;25.20;59.60;;;;;;4874458;29;20045;-72
2021/07/20 09:01:23;;;;;;;;;;;25.30;59.00;;;;;;4874968;29;20037;-72
2021/07/20 09:04:05;;;;;;;4.80;4.00;;;25.30;59.30;;;;;;4871905;29;20296;-72
2021/07/20 09:07:00;;;;;;;4.80;3.80;;;25.40;59.40;;;;;;4875217;29;20033;-72
2021/07/20 09:09:35;;;;;;;4.60;3.80;;;25.40;59.40;;;;;;4874500;29;20134;-72
2021/07/20 09:12:10;;;;;;;5.45;4.03;;;25.50;59.10;;;;;;4859235;29;20025;-72
2021/07/20 09:14:44;;;;;;;4.75;3.90;;;25.50;59.10;;;;;;4873796;29;20049;-72
2021/07/20 09:17:15;;;;;;;5.63;3.90;;;25.60;58.70;;;;;;4874625;29;20132;-72
2021/07/20 09:20:07;;;;;;;5.03;3.85;;;25.60;57.80;;;;;;4859403;29;20060;-72
2021/07/20 09:22:44;;;;;;;4.45;3.72;;;25.60;58.80;;;;;;4934079;29;20035;-72
2021/07/20 09:25:21;;;;;;;4.30;3.85;;;25.70;58.80;;;;;;4937870;29;20138;-72
2021/07/20 09:28:01;;;;;;;4.80;3.85;;;25.70;57.70;;;;;;4974912;28;20109;-72
2021/07/20 09:30:31;;;;;;;4.88;3.83;;;25.80;59.10;;;;;;5000138;28;20434;-72
2021/07/20 09:33:28;;;;;;;7.00;3.97;;;25.70;57.30;;;;;;4998790;28;20403;-72
2021/07/20 09:36:01;;;;;;;4.05;3.60;;;25.80;57.80;;;;;;5006921;28;20017;-72
2021/07/20 09:38:35;;;;;;;5.70;4.05;;;25.80;57.90;;;;;;5007900;28;20084;-72
2021/07/20 09:41:33;;;;;;;4.20;3.60;;;25.80;57.80;;;;;;4996351;28;20026;-72
2021/07/20 09:44:49;;;;;;;5.63;4.32;;;25.90;57.80;;;;;;5006346;28;20034;-72
2021/07/20 09:47:45;;;;;;;5.80;4.35;;;25.90;56.80;;;;;;4943994;28;20043;-72
2021/07/20 09:50:14;;;;;;;5.07;4.25;;;26.00;56.30;;;;;;4943080;28;20043;-72
2021/07/20 09:52:58;;;;;;;6.03;4.03;;;26.00;56.50;;;;;;4951630;28;20050;-72
2021/07/20 09:55:42;;;;;;;4.85;4.18;;;26.00;56.70;;;;;;4952460;28;20112;-72
2021/07/20 09:58:26;;;;;;;4.30;3.88;;;26.10;56.90;;;;;;4935646;29;20415;-73
2021/07/20 10:01:15;;;;;;;5.63;4.10;;;26.20;57.30;;;;;;4951455;29;20038;-72
2021/07/20 10:04:08;;;;;;;5.05;4.13;;;26.20;56.70;;;;;;4952258;28;20118;-72
2021/07/20 10:06:48;;;;;;;5.63;4.50;;;26.30;56.90;;;;;;4951290;28;20031;-72
2021/07/20 10:09:35;;;;;;;5.22;3.80;;;26.30;56.30;;;;;;4950414;28;20047;-70
2021/07/20 10:12:05;;;;;;;6.03;4.60;;;26.40;56.60;;;;;;4953254;28;20054;-70
2021/07/20 10:14:55;;;;;;;4.22;3.83;;;26.40;55.20;;;;;;4953630;28;20419;-70
2021/07/20 10:17:32;;;;;;;4.40;4.00;;;26.40;54.50;;;;;;4952921;28;20039;-70
2021/07/20 10:20:17;;;;;;;6.93;3.97;;;26.50;55.80;;;;;;4951644;28;20506;-70
2021/07/20 10:22:46;;;;;;;5.50;3.95;;;26.50;55.10;;;;;;4969868;28;20047;-70
2021/07/20 10:25:32;;;;;;;6.05;4.50;;;26.50;55.40;;;;;;5010143;28;20045;-72
2021/07/20 10:28:01;;;;;;;5.15;3.80;;;26.50;55.60;;;;;;4993094;28;20010;-71
2021/07/20 10:30:29;;;;;;;5.43;4.07;;;26.60;54.80;;;;;;4992794;28;20514;-70
2021/07/20 10:33:17;;;;;;;5.85;3.88;;;26.60;55.00;;;;;;4996476;28;20026;-70
2021/07/20 10:36:05;;;;;;;5.72;4.22;;;26.60;55.10;;;;;;4996317;28;20041;-70
2021/07/20 10:38:34;;;;;;;6.13;4.10;;;26.60;54.30;;;;;;5002111;28;20049;-71
2021/07/20 10:41:03;;;;;;;4.28;3.85;;;26.70;54.90;;;;;;4994825;28;20057;-72
2021/07/20 10:43:33;;;;;;;5.60;3.90;;;26.80;55.00;;;;;;4991856;28;20045;-71
2021/07/20 10:46:03;;;;;;;5.97;4.28;;;26.80;54.10;;;;;;4993903;28;20027;-71
2021/07/20 10:48:31;;;;;;;5.63;4.00;;;26.80;52.40;;;;;;4995378;28;20023;-70
2021/07/20 10:51:03;;;;;;;4.47;3.85;;;26.80;52.90;;;;;;4999281;28;20513;-71
2021/07/20 10:53:56;;;;;;;5.18;4.10;;;26.90;54.20;;;;;;4995288;28;20125;-71
2021/07/20 10:57:01;;;;;;;5.07;4.20;;;26.90;54.00;;;;;;5002611;28;20026;-70
2021/07/20 10:59:32;;;;;;;5.15;3.92;;;27.00;54.20;;;;;;4966939;28;20049;-70
2021/07/20 11:02:17;;;;;;;7.40;3.72;;;27.00;53.20;;;;;;4946451;28;20190;-71
2021/07/20 11:04:52;;;;;;;4.40;3.65;;;27.10;54.20;;;;;;4965319;28;20055;-71
2021/07/20 11:07:29;;;;;;;3.75;3.45;;;27.10;53.50;;;;;;4968708;28;20019;-73
2021/07/20 11:09:57;;;;;;;4.78;3.95;;;27.20;52.20;;;;;;4968801;28;20510;-73
2021/07/20 11:12:29;;;;;;;5.15;3.80;;;27.10;51.40;;;;;;4966726;28;20062;-73
2021/07/20 11:14:57;;;;;;;4.28;3.83;;;27.20;51.90;;;;;;4963913;28;20043;-74
2021/07/20 11:17:24;;;;;;;5.05;3.60;;;27.30;51.00;;;;;;4966927;28;20070;-74
2021/07/20 11:19:54;;;;;;;4.40;3.78;;;27.30;50.60;;;;;;4960398;28;20429;-74
2021/07/20 11:22:19;;;;;;;3.95;3.55;;;27.30;50.80;;;;;;4951897;28;20023;-73
2021/07/20 11:24:48;;;;;;;4.57;3.85;;;27.30;50.50;;;;;;4964271;28;20093;-73
2021/07/20 11:27:19;;;;;;;4.00;3.42;;;27.40;49.60;;;;;;4963168;28;20061;-72
2021/07/20 11:29:45;;;;;;;4.35;3.58;;;27.40;50.40;;;;;;4972165;28;20053;-72
2021/07/20 11:32:17;;;;;;;5.35;3.60;;;27.50;50.20;;;;;;5005401;28;20026;-73
2021/07/20 11:34:51;;;;;;;3.90;3.53;;;27.60;51.10;;;;;;5004608;28;20054;-72
2021/07/20 11:37:23;;;;;;;4.13;3.55;;;27.70;50.90;;;;;;5005584;28;20054;-73
2021/07/20 11:39:58;;;;;;;4.55;3.72;;;27.70;51.00;;;;;;5009736;28;20486;-72
2021/07/20 11:42:33;;;;;;;5.35;3.15;;;27.90;51.90;;;;;;5004055;28;20107;-72
2021/07/20 11:45:09;;;;;;;5.13;3.80;;;28.10;51.20;;;;;;5005407;28;20048;-71
2021/07/20 11:47:43;;;;;;;5.72;3.47;;;28.20;49.60;;;;;;5004993;28;20030;-72
2021/07/20 11:50:15;;;;;;;3.83;3.42;;;28.30;49.40;;;;;;5006586;28;20451;-73
2021/07/20 11:52:46;;;;;;;4.00;3.60;;;28.30;48.30;;;;;;5007983;28;20502;-73
2021/07/20 11:55:42;;;;;;;4.75;3.70;;;28.20;49.40;;;;;;5000897;28;20030;-72
2021/07/20 11:58:45;;;;;;;5.50;3.65;;;28.10;49.30;;;;;;5008204;28;20018;-72
2021/07/20 12:01:42;;;;;;;4.80;3.90;;;28.10;48.40;;;;;;5003698;28;20041;-72
2021/07/20 12:04:42;;;;;;;4.47;3.60;;;28.10;48.50;;;;;;5009386;28;20074;-73
2021/07/20 12:07:13;;;;;;;5.22;3.67;;;28.20;49.00;;;;;;5008201;28;20024;-73
2021/07/20 12:10:32;;;;;;;6.15;3.45;;;28.20;48.50;;;;;;5008476;28;20034;-71
2021/07/20 12:13:05;;;;;;;7.53;6.18;;;28.20;48.60;;;;;;4967499;28;20038;-72
2021/07/20 12:15:33;;;;;;;6.07;5.30;;;28.30;48.90;;;;;;4965468;28;20051;-73
2021/07/20 12:18:02;;;;;;;4.68;4.18;;;28.40;49.00;;;;;;4964299;28;20035;-73
2021/07/20 12:20:28;;;;;;;4.45;3.80;;;28.50;48.50;;;;;;4961942;28;20027;-73
2021/07/20 12:22:56;;;;;;;4.63;3.60;;;28.60;47.90;;;;;;4968092;28;20118;-73
2021/07/20 12:25:23;;;;;;;3.88;3.30;;;28.60;46.70;;;;;;4967992;28;20061;-73
2021/07/20 12:27:51;;;;;;;4.47;3.38;;;28.60;46.60;;;;;;4966101;28;20022;-71
2021/07/20 12:30:19;;;;;;;4.43;3.20;;;28.70;47.70;;;;;;4960233;28;20190;-73
2021/07/20 12:32:45;;;;;;;3.88;3.45;;;28.70;49.60;;;;;;4966916;28;20034;-71
2021/07/20 12:35:13;;;;;;;6.57;3.50;;;28.80;46.40;;;;;;4970153;28;20031;-72
2021/07/20 12:37:40;;;;;;;3.63;3.17;;;28.70;45.50;;;;;;4968684;28;20423;-73
2021/07/20 12:40:11;;;;;;;3.85;3.38;;;28.60;46.30;;;;;;4963735;28;20229;-69
2021/07/20 12:42:41;;;;;;;5.47;3.80;;;28.70;47.10;;;;;;4969098;28;20019;-72
2021/07/20 12:45:10;;;;;;;4.90;3.50;;;28.70;46.70;;;;;;5007118;28;20068;-71
2021/07/20 12:47:42;;;;;;;5.25;3.60;;;28.60;46.40;;;;;;5006894;28;20033;-72
2021/07/20 12:50:14;;;;;;;6.03;3.28;;;28.60;47.20;;;;;;5007730;28;20502;-74
2021/07/20 12:52:42;;;;;;;3.95;3.55;;;28.70;46.20;;;;;;5007141;28;20435;-74
2021/07/20 12:55:20;;;;;;;5.43;3.40;;;28.70;46.00;;;;;;5004759;28;20033;-75
2021/07/20 12:57:59;;;;;;;4.05;3.20;;;28.80;45.40;;;;;;5008557;28;20931;-74
2021/07/20 13:00:29;;;;;;;4.03;3.38;;;28.90;45.90;;;;;;5005312;28;20014;-76
2021/07/20 13:03:02;;;;;;;3.50;3.20;;;28.90;45.40;;;;;;5003152;28;20533;-75
2021/07/20 13:05:28;;;;;;;4.07;3.22;;;28.90;45.10;;;;;;5003098;28;20483;-74
2021/07/20 13:07:59;;;;;;;3.92;3.30;;;28.80;44.20;;;;;;5006261;28;20040;-73
2021/07/20 13:10:28;;;;;;;4.15;3.53;;;28.90;45.70;;;;;;5002257;28;20022;-72
2021/07/20 13:12:54;;;;;;;4.57;3.45;;;28.90;44.60;;;;;;5006856;28;20026;-73